createdAt,value
2018-05-12T00:03:44.583Z,16.00
2018-05-12T00:08:40.501Z,16.00
2018-05-12T00:13:35.845Z,15.90
2018-05-12T00:18:31.634Z,15.70
2018-05-12T00:23:26.216Z,15.70
2018-05-12T00:28:20.568Z,15.60
2018-05-12T00:33:21.640Z,15.50
2018-05-12T00:38:17.157Z,15.40
2018-05-12T00:43:11.521Z,15.20
2018-05-12T00:48:05.890Z,15.10
2018-05-12T00:53:00.238Z,15.00
2018-05-12T00:57:54.597Z,14.90
2018-05-12T01:02:48.938Z,14.80
2018-05-12T01:07:43.555Z,14.80
2018-05-12T01:12:38.262Z,14.60
2018-05-12T01:17:32.770Z,14.50
2018-05-12T01:22:27.125Z,14.50
2018-05-12T01:27:21.487Z,14.40
2018-05-12T01:32:15.825Z,14.30
2018-05-12T01:37:10.945Z,14.20
2018-05-12T01:42:06.046Z,14.20
2018-05-12T01:47:01.257Z,14.10
2018-05-12T01:51:55.825Z,14.10
2018-05-12T01:56:50.202Z,14.00
2018-05-12T02:01:44.539Z,13.90
2018-05-12T02:06:39.144Z,13.90
2018-05-12T02:11:33.664Z,13.80
2018-05-12T02:16:28.123Z,13.80
2018-05-12T02:21:22.481Z,13.80
2018-05-12T02:26:18.354Z,13.80
2018-05-12T02:31:13.447Z,14.00
2018-05-12T02:36:07.890Z,13.90
2018-05-12T02:41:03.230Z,14.20
2018-05-12T02:45:57.587Z,14.10
2018-05-12T02:50:52.713Z,14.10
2018-05-12T02:55:49.602Z,14.10
2018-05-12T03:00:44.896Z,14.00
2018-05-12T03:05:39.453Z,13.90
2018-05-12T03:10:33.813Z,13.90
2018-05-12T03:15:28.726Z,13.80
2018-05-12T03:20:23.858Z,13.80
2018-05-12T03:25:19.383Z,13.80
2018-05-12T03:30:14.511Z,13.70
2018-05-12T03:35:08.922Z,13.70
2018-05-12T03:40:03.263Z,13.70
2018-05-12T03:44:57.378Z,13.70
2018-05-12T03:49:51.741Z,13.70
2018-05-12T03:54:46.105Z,13.60
2018-05-12T03:59:41.380Z,13.50
2018-05-12T04:04:53.485Z,13.50
2018-05-12T04:10:05.045Z,13.50
2018-05-12T04:15:00.199Z,13.60
2018-05-12T04:19:54.890Z,13.70
2018-05-12T04:24:50.013Z,13.90
2018-05-12T04:29:45.151Z,14.10
2018-05-12T04:34:39.568Z,14.10
2018-05-12T04:39:36.877Z,14.30
2018-05-12T04:44:31.226Z,14.50
2018-05-12T04:49:25.582Z,14.70
2018-05-12T04:54:20.282Z,14.90
2018-05-12T04:59:15.761Z,15.20
2018-05-12T05:04:10.099Z,15.20
2018-05-12T05:09:03.782Z,15.40
2018-05-12T05:13:59.074Z,15.70
2018-05-12T05:18:53.461Z,15.70
2018-05-12T05:23:48.584Z,16.00
2018-05-12T05:28:43.698Z,17.00
2018-05-12T05:33:39.230Z,18.60
2018-05-12T05:38:35.016Z,19.60
2018-05-12T05:43:29.378Z,19.60
2018-05-12T05:48:23.753Z,20.50
2018-05-12T05:53:18.359Z,22.00
2018-05-12T05:58:12.726Z,23.30
2018-05-12T06:03:07.098Z,24.50
2018-05-12T06:08:01.529Z,26.00
2018-05-12T06:12:55.893Z,27.80
2018-05-12T06:17:51.020Z,31.40
2018-05-12T06:22:46.492Z,32.20
2018-05-12T06:27:41.809Z,32.10
2018-05-12T06:32:36.441Z,32.90
2018-05-12T06:37:31.282Z,34.00
2018-05-12T06:42:26.053Z,34.40
2018-05-12T06:47:21.278Z,34.60
2018-05-12T06:52:15.926Z,35.40
2018-05-12T06:57:10.705Z,36.60
2018-05-12T07:02:05.338Z,38.10
2018-05-12T07:07:00.239Z,38.40
2018-05-12T07:11:54.848Z,38.00
2018-05-12T07:16:49.714Z,38.10
2018-05-12T07:21:45.269Z,39.40
2018-05-12T07:26:40.029Z,39.40
2018-05-12T07:31:34.664Z,40.80
2018-05-12T07:36:30.054Z,41.90
2018-05-12T07:41:25.638Z,41.80
2018-05-12T07:46:21.881Z,43.50
2018-05-12T07:51:17.284Z,44.00
2018-05-12T07:56:11.898Z,43.90
2018-05-12T08:01:08.204Z,46.10
2018-05-12T08:06:03.098Z,46.10
2018-05-12T08:10:58.022Z,47.90
2018-05-12T08:15:52.668Z,49.70
2018-05-12T08:20:47.349Z,50.90
2018-05-12T08:25:42.098Z,50.90
2018-05-12T08:30:36.724Z,51.20
2018-05-12T08:35:32.234Z,50.30
2018-05-12T08:40:28.368Z,49.30
2018-05-12T08:45:23.162Z,49.30
2018-05-12T08:50:18.027Z,48.00
2018-05-12T08:55:13.500Z,48.60
2018-05-12T09:00:08.497Z,48.60
2018-05-12T09:05:03.116Z,48.80
2018-05-12T09:09:57.739Z,47.30
2018-05-12T09:14:52.449Z,47.20
2018-05-12T09:19:47.076Z,46.10
2018-05-12T09:24:41.955Z,44.40
2018-05-12T09:29:36.568Z,44.40
2018-05-12T09:34:31.204Z,44.60
2018-05-12T09:39:25.839Z,42.90
2018-05-12T09:44:20.868Z,40.30
2018-05-12T09:49:16.260Z,37.80
2018-05-12T09:54:10.896Z,37.70
2018-05-12T09:59:06.284Z,32.50
2018-05-12T10:04:00.674Z,32.30
2018-05-12T10:08:55.304Z,30.90
2018-05-12T10:13:50.093Z,29.70
2018-05-12T10:18:44.737Z,28.50
2018-05-12T10:23:40.334Z,27.00
2018-05-12T10:28:35.112Z,26.90
2018-05-12T10:33:29.512Z,26.50
2018-05-12T10:38:23.933Z,26.50
2018-05-12T10:43:18.302Z,26.90
2018-05-12T10:48:12.672Z,27.20
2018-05-12T10:53:08.050Z,26.80
2018-05-12T10:58:02.515Z,26.80
2018-05-12T11:02:57.750Z,26.40
2018-05-12T11:07:52.118Z,26.40
2018-05-12T11:12:46.904Z,26.60
2018-05-12T11:17:41.807Z,26.80
2018-05-12T11:22:36.189Z,26.50
2018-05-12T11:27:30.553Z,26.20
2018-05-12T11:32:24.909Z,26.00
2018-05-12T11:37:19.488Z,25.70
2018-05-12T11:42:14.866Z,25.70
2018-05-12T11:47:10.278Z,25.50
2018-05-12T11:52:04.686Z,25.40
2018-05-12T11:56:59.352Z,25.40
2018-05-12T12:01:53.475Z,25.60
2018-05-12T12:06:47.920Z,25.50
2018-05-12T12:11:42.501Z,25.40
2018-05-12T12:16:37.043Z,25.50
2018-05-12T12:21:31.944Z,25.60
2018-05-12T12:26:26.404Z,25.70
2018-05-12T12:31:20.944Z,25.60
2018-05-12T12:36:15.124Z,25.60
2018-05-12T12:41:11.174Z,25.60
2018-05-12T12:46:05.753Z,25.60
2018-05-12T12:51:00.398Z,25.40
2018-05-12T12:55:54.759Z,25.40
2018-05-12T13:00:49.645Z,25.90
2018-05-12T13:05:44.310Z,25.80
2018-05-12T13:10:38.899Z,26.00
2018-05-12T13:15:33.354Z,25.90
2018-05-12T13:20:27.747Z,25.80
2018-05-12T13:25:22.126Z,26.10
2018-05-12T13:30:16.532Z,26.00
2018-05-12T13:35:10.973Z,26.10
2018-05-12T13:40:05.829Z,26.30
2018-05-12T13:45:00.171Z,26.40
2018-05-12T13:49:55.339Z,26.40
2018-05-12T13:54:50.492Z,26.60
2018-05-12T13:59:45.079Z,26.60
2018-05-12T14:04:39.527Z,26.60
2018-05-12T14:09:33.884Z,26.80
2018-05-12T14:14:28.373Z,26.80
2018-05-12T14:19:23.580Z,26.50
2018-05-12T14:24:18.040Z,26.50
2018-05-12T14:29:12.401Z,26.20
2018-05-12T14:34:08.298Z,26.10
2018-05-12T14:39:02.761Z,26.10
2018-05-12T14:43:57.534Z,26.20
2018-05-12T14:48:51.882Z,26.20
2018-05-12T14:53:48.354Z,26.20
2018-05-12T14:58:42.718Z,26.20
2018-05-12T15:03:37.842Z,26.60
2018-05-12T15:08:32.961Z,26.40
2018-05-12T15:13:28.302Z,26.60
2018-05-12T15:18:22.660Z,26.50
2018-05-12T15:23:17.058Z,26.70
2018-05-12T15:28:11.514Z,26.30
2018-05-12T15:33:06.135Z,26.20
2018-05-12T15:38:00.613Z,26.00
2018-05-12T15:42:55.787Z,25.50
2018-05-12T15:47:50.171Z,25.50
2018-05-12T15:52:44.547Z,25.40
2018-05-12T15:57:39.080Z,25.40
2018-05-12T16:02:33.447Z,25.50
2018-05-12T16:07:28.911Z,25.30
2018-05-12T16:12:23.494Z,25.30
2018-05-12T16:17:18.690Z,25.20
2018-05-12T16:22:13.488Z,25.20
2018-05-12T16:27:08.363Z,25.20
2018-05-12T16:32:02.783Z,25.30
2018-05-12T16:36:57.164Z,25.20
2018-05-12T16:41:51.565Z,25.10
2018-05-12T16:46:45.749Z,25.10
2018-05-12T16:51:40.479Z,25.00
2018-05-12T16:56:35.204Z,24.80
2018-05-12T17:01:29.628Z,24.60
2018-05-12T17:06:24.307Z,24.50
2018-05-12T17:11:18.934Z,24.40
2018-05-12T17:16:13.342Z,24.30
2018-05-12T17:21:08.070Z,24.10
2018-05-12T17:26:02.477Z,24.00
2018-05-12T17:30:57.048Z,23.80
2018-05-12T17:35:51.611Z,23.80
2018-05-12T17:40:46.904Z,23.70
2018-05-12T17:45:41.370Z,23.60
2018-05-12T17:50:35.721Z,23.60
2018-05-12T17:55:30.863Z,23.40
2018-05-12T18:00:26.103Z,23.40
2018-05-12T18:05:20.524Z,23.40
2018-05-12T18:10:14.877Z,23.30
2018-05-12T18:15:09.338Z,23.20
2018-05-12T18:20:03.476Z,23.10
2018-05-12T18:24:58.613Z,22.90
2018-05-12T18:29:53.732Z,22.80
2018-05-12T18:34:48.958Z,22.60
2018-05-12T18:39:44.080Z,22.50
2018-05-12T18:44:39.238Z,22.30
2018-05-12T18:49:33.601Z,22.30
2018-05-12T18:54:29.023Z,22.10
2018-05-12T18:59:24.337Z,21.90
2018-05-12T19:04:18.694Z,21.90
2018-05-12T19:09:13.078Z,21.70
2018-05-12T19:14:07.514Z,21.60
2018-05-12T19:19:01.899Z,21.40
2018-05-12T19:23:56.286Z,21.20
2018-05-12T19:28:50.854Z,21.00
2018-05-12T19:33:45.546Z,20.80
2018-05-12T19:38:40.172Z,20.70
2018-05-12T19:43:34.535Z,20.60
2018-05-12T19:48:30.513Z,20.50
2018-05-12T19:53:24.959Z,20.30
2018-05-12T19:58:19.330Z,20.30
2018-05-12T20:03:14.497Z,20.10
2018-05-12T20:08:08.853Z,20.10
2018-05-12T20:13:04.013Z,20.10
2018-05-12T20:17:58.570Z,20.10
2018-05-12T20:22:52.945Z,20.10
2018-05-12T20:27:47.553Z,20.00
2018-05-12T20:32:42.172Z,19.80
2018-05-12T20:37:36.559Z,19.80
2018-05-12T20:42:30.862Z,19.70
2018-05-12T20:47:25.357Z,19.70
2018-05-12T20:52:19.730Z,19.60
2018-05-12T20:57:14.087Z,19.50
2018-05-12T21:02:08.770Z,19.60
2018-05-12T21:07:03.302Z,19.50
2018-05-12T21:11:57.712Z,19.60
2018-05-12T21:16:52.229Z,19.60
2018-05-12T21:21:46.572Z,19.50
2018-05-12T21:26:41.032Z,19.50
2018-05-12T21:31:35.407Z,19.50
2018-05-12T21:36:31.026Z,19.40
2018-05-12T21:41:25.401Z,19.40
2018-05-12T21:46:20.540Z,19.30
2018-05-12T21:51:14.878Z,19.30
2018-05-12T21:56:09.416Z,19.30
2018-05-12T22:01:04.787Z,19.20
2018-05-12T22:05:59.138Z,19.20
2018-05-12T22:10:54.276Z,19.00
2018-05-12T22:15:49.400Z,18.80
2018-05-12T22:20:43.762Z,18.80
2018-05-12T22:25:38.146Z,18.70
2018-05-12T22:30:32.607Z,18.60
2018-05-12T22:35:27.828Z,18.30
2018-05-12T22:40:22.960Z,18.10
2018-05-12T22:45:18.102Z,18.00
2018-05-12T22:50:12.261Z,17.90
2018-05-12T22:55:07.411Z,17.80
2018-05-12T23:00:01.770Z,17.80
2018-05-12T23:04:56.216Z,17.80
2018-05-12T23:09:50.738Z,17.70
2018-05-12T23:14:45.257Z,17.60
2018-05-12T23:19:39.667Z,17.50
2018-05-12T23:24:34.821Z,17.30
2018-05-12T23:29:29.949Z,17.20
2018-05-12T23:34:25.116Z,17.10
2018-05-12T23:39:19.478Z,17.00
2018-05-12T23:44:14.599Z,17.10
2018-05-12T23:49:09.076Z,17.10
2018-05-12T23:54:03.518Z,17.30
2018-05-12T23:58:57.896Z,17.40
